sensor_id;sensor_type;location;lat;lon;timestamp;pressure;altitude;pressure_sealevel;temperature;humidity
77207;BME280;66190;50.708;7.906;2023-12-07T00:00:29;96610.53;;;1.69;100.00
77207;BME280;66190;50.708;7.906;2023-12-07T00:02:55;96621.84;;;1.71;100.00
77207;BME280;66190;50.708;7.906;2023-12-07T00:05:20;96616.38;;;1.72;100.00
77207;BME280;66190;50.708;7.906;2023-12-07T00:07:46;96611.94;;;1.73;100.00
77207;BME280;66190;50.708;7.906;2023-12-07T00:10:11;96615.28;;;1.75;100.00
77207;BME280;66190;50.708;7.906;2023-12-07T00:12:37;96618.78;;;1.75;100.00
77207;BME280;66190;50.708;7.906;2023-12-07T00:15:02;96618.38;;;1.70;100.00
77207;BME280;66190;50.708;7.906;2023-12-07T00:17:28;96626.34;;;1.61;100.00
77207;BME280;66190;50.708;7.906;2023-12-07T00:19:53;96628.00;;;1.62;100.00
77207;BME280;66190;50.708;7.906;2023-12-07T00:22:19;96622.84;;;1.60;100.00
77207;BME280;66190;50.708;7.906;2023-12-07T00:24:45;96627.19;;;1.61;100.00
77207;BME280;66190;50.708;7.906;2023-12-07T00:27:11;96623.25;;;1.65;100.00
77207;BME280;66190;50.708;7.906;2023-12-07T00:29:39;96625.63;;;1.68;100.00
77207;BME280;66190;50.708;7.906;2023-12-07T00:32:05;96629.09;;;1.69;100.00
77207;BME280;66190;50.708;7.906;2023-12-07T00:34:30;96631.91;;;1.67;100.00
77207;BME280;66190;50.708;7.906;2023-12-07T00:36:56;96635.41;;;1.68;100.00
77207;BME280;66190;50.708;7.906;2023-12-07T00:39:21;96638.34;;;1.65;100.00
77207;BME280;66190;50.708;7.906;2023-12-07T00:41:47;96637.06;;;1.69;100.00
77207;BME280;66190;50.708;7.906;2023-12-07T00:44:13;96642.09;;;1.62;100.00
77207;BME280;66190;50.708;7.906;2023-12-07T00:46:40;96641.69;;;1.67;100.00
77207;BME280;66190;50.708;7.906;2023-12-07T00:49:05;96634.84;;;1.64;100.00
77207;BME280;66190;50.708;7.906;2023-12-07T00:51:31;96632.34;;;1.63;100.00
77207;BME280;66190;50.708;7.906;2023-12-07T00:53:56;96631.78;;;1.59;100.00
77207;BME280;66190;50.708;7.906;2023-12-07T00:56:22;96632.66;;;1.60;100.00
77207;BME280;66190;50.708;7.906;2023-12-07T00:58:47;96635.41;;;1.58;100.00
77207;BME280;66190;50.708;7.906;2023-12-07T01:01:13;96641.84;;;1.56;100.00
77207;BME280;66190;50.708;7.906;2023-12-07T01:03:38;96648.56;;;1.60;100.00
77207;BME280;66190;50.708;7.906;2023-12-07T01:06:06;96643.25;;;1.60;100.00
77207;BME280;66190;50.708;7.906;2023-12-07T01:08:31;96636.50;;;1.65;100.00
77207;BME280;66190;50.708;7.906;2023-12-07T01:10:57;96639.59;;;1.61;100.00
77207;BME280;66190;50.708;7.906;2023-12-07T01:13:22;96638.22;;;1.57;100.00
77207;BME280;66190;50.708;7.906;2023-12-07T01:15:49;96642.97;;;1.63;100.00
77207;BME280;66190;50.708;7.906;2023-12-07T01:18:14;96644.75;;;1.62;100.00
77207;BME280;66190;50.708;7.906;2023-12-07T01:20:40;96650.31;;;1.69;100.00
77207;BME280;66190;50.708;7.906;2023-12-07T01:23:05;96651.03;;;1.71;100.00
77207;BME280;66190;50.708;7.906;2023-12-07T01:25:31;96656.47;;;1.69;100.00
77207;BME280;66190;50.708;7.906;2023-12-07T01:27:56;96664.56;;;1.58;100.00
77207;BME280;66190;50.708;7.906;2023-12-07T01:30:22;96662.91;;;1.67;100.00
77207;BME280;66190;50.708;7.906;2023-12-07T01:32:47;96656.75;;;1.66;100.00
77207;BME280;66190;50.708;7.906;2023-12-07T01:35:13;96663.47;;;1.70;100.00
77207;BME280;66190;50.708;7.906;2023-12-07T01:37:38;96655.34;;;1.72;100.00
77207;BME280;66190;50.708;7.906;2023-12-07T01:40:04;96659.13;;;1.69;100.00
77207;BME280;66190;50.708;7.906;2023-12-07T01:42:38;96654.50;;;1.71;100.00
77207;BME280;66190;50.708;7.906;2023-12-07T01:45:05;96651.03;;;1.71;100.00
77207;BME280;66190;50.708;7.906;2023-12-07T01:47:32;96656.47;;;1.69;100.00
77207;BME280;66190;50.708;7.906;2023-12-07T01:49:59;96658.00;;;1.72;100.00
77207;BME280;66190;50.708;7.906;2023-12-07T01:52:27;96661.63;;;1.71;100.00
77207;BME280;66190;50.708;7.906;2023-12-07T01:54:54;96670.28;;;1.73;100.00
77207;BME280;66190;50.708;7.906;2023-12-07T01:57:20;96667.63;;;1.73;100.00
77207;BME280;66190;50.708;7.906;2023-12-07T01:59:46;96671.13;;;1.73;100.00
77207;BME280;66190;50.708;7.906;2023-12-07T02:02:12;96670.56;;;1.70;100.00
77207;BME280;66190;50.708;7.906;2023-12-07T02:04:38;96674.75;;;1.72;100.00
77207;BME280;66190;50.708;7.906;2023-12-07T02:07:04;96679.09;;;1.73;100.00
77207;BME280;66190;50.708;7.906;2023-12-07T02:09:29;96673.53;;;1.67;100.00
77207;BME280;66190;50.708;7.906;2023-12-07T02:11:55;96671.69;;;1.67;100.00
77207;BME280;66190;50.708;7.906;2023-12-07T02:14:20;96676.44;;;1.64;100.00
77207;BME280;66190;50.708;7.906;2023-12-07T02:16:51;96676.19;;;1.57;100.00
77207;BME280;66190;50.708;7.906;2023-12-07T02:21:52;96674.91;;;1.52;100.00
77207;BME280;66190;50.708;7.906;2023-12-07T02:24:21;96674.50;;;1.47;100.00
77207;BME280;66190;50.708;7.906;2023-12-07T02:26:48;96673.00;;;1.44;100.00
77207;BME280;66190;50.708;7.906;2023-12-07T02:29:14;96671.44;;;1.42;100.00
77207;BME280;66190;50.708;7.906;2023-12-07T02:31:40;96670.91;;;1.38;100.00
77207;BME280;66190;50.708;7.906;2023-12-07T02:34:05;96669.66;;;1.42;100.00
77207;BME280;66190;50.708;7.906;2023-12-07T02:36:32;96671.31;;;1.43;100.00
77207;BME280;66190;50.708;7.906;2023-12-07T02:39:00;96674.09;;;1.42;100.00
77207;BME280;66190;50.708;7.906;2023-12-07T02:41:33;96670.06;;;1.38;100.00
77207;BME280;66190;50.708;7.906;2023-12-07T02:43:59;96684.16;;;1.48;100.00
77207;BME280;66190;50.708;7.906;2023-12-07T02:46:25;96682.63;;;1.45;100.00
77207;BME280;66190;50.708;7.906;2023-12-07T02:48:51;96683.31;;;1.47;100.00
77207;BME280;66190;50.708;7.906;2023-12-07T02:51:16;96680.22;;;1.52;100.00
77207;BME280;66190;50.708;7.906;2023-12-07T02:53:42;96682.63;;;1.45;100.00
77207;BME280;66190;50.708;7.906;2023-12-07T02:56:07;96674.22;;;1.50;100.00
77207;BME280;66190;50.708;7.906;2023-12-07T02:58:33;96673.13;;;1.52;100.00
77207;BME280;66190;50.708;7.906;2023-12-07T03:00:58;96686.78;;;1.57;100.00
77207;BME280;66190;50.708;7.906;2023-12-07T03:03:24;96688.88;;;1.54;100.00
77207;BME280;66190;50.708;7.906;2023-12-07T03:05:50;96686.38;;;1.52;100.00
77207;BME280;66190;50.708;7.906;2023-12-07T03:08:15;96698.50;;;1.55;100.00
77207;BME280;66190;50.708;7.906;2023-12-07T03:10:41;96689.56;;;1.56;100.00
77207;BME280;66190;50.708;7.906;2023-12-07T03:13:06;96693.88;;;1.57;100.00
77207;BME280;66190;50.708;7.906;2023-12-07T03:15:31;96700.75;;;1.59;100.00
77207;BME280;66190;50.708;7.906;2023-12-07T03:17:57;96701.59;;;1.60;100.00
77207;BME280;66190;50.708;7.906;2023-12-07T03:20:22;96695.69;;;1.66;100.00
77207;BME280;66190;50.708;7.906;2023-12-07T03:22:48;96686.34;;;1.62;100.00
77207;BME280;66190;50.708;7.906;2023-12-07T03:25:13;96684.81;;;1.59;100.00
77207;BME280;66190;50.708;7.906;2023-12-07T03:27:39;96682.31;;;1.58;100.00
77207;BME280;66190;50.708;7.906;2023-12-07T03:30:05;96687.63;;;1.58;100.00
77207;BME280;66190;50.708;7.906;2023-12-07T03:32:30;96687.88;;;1.55;100.00
77207;BME280;66190;50.708;7.906;2023-12-07T03:34:56;96681.38;;;1.49;100.00
77207;BME280;66190;50.708;7.906;2023-12-07T03:37:21;96691.13;;;1.49;100.00
77207;BME280;66190;50.708;7.906;2023-12-07T03:39:47;96684.81;;;1.50;100.00
77207;BME280;66190;50.708;7.906;2023-12-07T03:42:12;96692.94;;;1.48;100.00
77207;BME280;66190;50.708;7.906;2023-12-07T03:44:37;96690.13;;;1.50;100.00
77207;BME280;66190;50.708;7.906;2023-12-07T03:47:03;96685.53;;;1.52;100.00
77207;BME280;66190;50.708;7.906;2023-12-07T03:49:29;96680.22;;;1.52;100.00
77207;BME280;66190;50.708;7.906;2023-12-07T03:51:54;96678.84;;;1.48;100.00
77207;BME280;66190;50.708;7.906;2023-12-07T03:54:19;96683.03;;;1.50;100.00
77207;BME280;66190;50.708;7.906;2023-12-07T03:56:45;96679.38;;;1.51;100.00
77207;BME280;66190;50.708;7.906;2023-12-07T03:59:10;96678.16;;;1.46;100.00
77207;BME280;66190;50.708;7.906;2023-12-07T04:01:36;96684.69;;;1.51;100.00
77207;BME280;66190;50.708;7.906;2023-12-07T04:04:01;96685.41;;;1.44;100.00
77207;BME280;66190;50.708;7.906;2023-12-07T04:06:27;96684.84;;;1.40;100.00
77207;BME280;66190;50.708;7.906;2023-12-07T04:08:52;96681.91;;;1.43;100.00
77207;BME280;66190;50.708;7.906;2023-12-07T04:11:18;96680.66;;;1.38;100.00
77207;BME280;66190;50.708;7.906;2023-12-07T04:13:43;96681.22;;;1.41;100.00
77207;BME280;66190;50.708;7.906;2023-12-07T04:16:10;96680.41;;;1.41;100.00
77207;BME280;66190;50.708;7.906;2023-12-07T04:18:36;96679.97;;;1.36;100.00
77207;BME280;66190;50.708;7.906;2023-12-07T04:21:02;96675.50;;;1.36;100.00
77207;BME280;66190;50.708;7.906;2023-12-07T04:23:28;96671.75;;;1.20;100.00
77207;BME280;66190;50.708;7.906;2023-12-07T04:25:53;96675.66;;;1.15;100.00
77207;BME280;66190;50.708;7.906;2023-12-07T04:28:19;96676.75;;;1.13;100.00
77207;BME280;66190;50.708;7.906;2023-12-07T04:30:45;96680.69;;;1.09;100.00
77207;BME280;66190;50.708;7.906;2023-12-07T04:33:10;96681.94;;;1.05;100.00
77207;BME280;66190;50.708;7.906;2023-12-07T04:35:36;96684.16;;;1.00;100.00
77207;BME280;66190;50.708;7.906;2023-12-07T04:38:01;96677.59;;;0.94;100.00
77207;BME280;66190;50.708;7.906;2023-12-07T04:40:27;96685.69;;;0.83;100.00
77207;BME280;66190;50.708;7.906;2023-12-07T04:42:53;96688.19;;;0.85;100.00
77207;BME280;66190;50.708;7.906;2023-12-07T04:45:18;96692.94;;;0.81;100.00
77207;BME280;66190;50.708;7.906;2023-12-07T04:47:44;96688.88;;;0.87;100.00
77207;BME280;66190;50.708;7.906;2023-12-07T04:50:10;96704.09;;;0.85;100.00
77207;BME280;66190;50.708;7.906;2023-12-07T04:52:36;96701.03;;;0.80;100.00
77207;BME280;66190;50.708;7.906;2023-12-07T04:55:01;96703.91;;;0.67;100.00
77207;BME280;66190;50.708;7.906;2023-12-07T04:57:27;96699.16;;;0.61;100.00
77207;BME280;66190;50.708;7.906;2023-12-07T04:59:52;96702.78;;;0.70;100.00
77207;BME280;66190;50.708;7.906;2023-12-07T05:02:18;96697.34;;;0.62;100.00
77207;BME280;66190;50.708;7.906;2023-12-07T05:04:44;96708.78;;;0.62;100.00
77207;BME280;66190;50.708;7.906;2023-12-07T05:07:13;96706.53;;;0.58;100.00
77207;BME280;66190;50.708;7.906;2023-12-07T05:09:38;96714.31;;;0.59;100.00
77207;BME280;66190;50.708;7.906;2023-12-07T05:12:04;96708.94;;;0.70;100.00
77207;BME280;66190;50.708;7.906;2023-12-07T05:14:33;96708.22;;;0.68;100.00
77207;BME280;66190;50.708;7.906;2023-12-07T05:17:00;96712.66;;;0.68;100.00
77207;BME280;66190;50.708;7.906;2023-12-07T05:19:26;96709.63;;;0.72;100.00
77207;BME280;66190;50.708;7.906;2023-12-07T05:21:52;96712.56;;;0.69;100.00
77207;BME280;66190;50.708;7.906;2023-12-07T05:24:17;96713.94;;;0.73;100.00
77207;BME280;66190;50.708;7.906;2023-12-07T05:26:44;96709.34;;;0.75;100.00
77207;BME280;66190;50.708;7.906;2023-12-07T05:29:13;96705.19;;;0.82;100.00
77207;BME280;66190;50.708;7.906;2023-12-07T05:31:39;96706.31;;;0.89;100.00
77207;BME280;66190;50.708;7.906;2023-12-07T05:34:05;96707.97;;;0.90;100.00
77207;BME280;66190;50.708;7.906;2023-12-07T05:36:31;96710.50;;;0.92;100.00
77207;BME280;66190;50.708;7.906;2023-12-07T05:38:56;96711.19;;;0.94;100.00
77207;BME280;66190;50.708;7.906;2023-12-07T05:41:21;96711.75;;;0.97;100.00
77207;BME280;66190;50.708;7.906;2023-12-07T05:43:47;96715.66;;;0.93;100.00
77207;BME280;66190;50.708;7.906;2023-12-07T05:46:12;96717.03;;;0.97;100.00
77207;BME280;66190;50.708;7.906;2023-12-07T05:48:38;96718.56;;;0.90;100.00
77207;BME280;66190;50.708;7.906;2023-12-07T05:51:04;96726.25;;;0.93;100.00
77207;BME280;66190;50.708;7.906;2023-12-07T05:53:29;96726.13;;;0.95;100.00
77207;BME280;66190;50.708;7.906;2023-12-07T05:55:57;96725.94;;;0.87;100.00
77207;BME280;66190;50.708;7.906;2023-12-07T05:58:23;96719.28;;;0.83;100.00
77207;BME280;66190;50.708;7.906;2023-12-07T06:00:48;96726.50;;;0.90;100.00
77207;BME280;66190;50.708;7.906;2023-12-07T06:03:14;96730.16;;;0.89;100.00
77207;BME280;66190;50.708;7.906;2023-12-07T06:05:40;96730.56;;;0.85;100.00
77207;BME280;66190;50.708;7.906;2023-12-07T06:08:06;96734.75;;;0.87;100.00
77207;BME280;66190;50.708;7.906;2023-12-07T06:10:32;96729.47;;;0.97;100.00
77207;BME280;66190;50.708;7.906;2023-12-07T06:12:58;96737.56;;;0.95;100.00
77207;BME280;66190;50.708;7.906;2023-12-07T06:15:26;96737.97;;;0.91;100.00
77207;BME280;66190;50.708;7.906;2023-12-07T06:17:51;96729.88;;;0.92;100.00
77207;BME280;66190;50.708;7.906;2023-12-07T06:20:17;96735.31;;;0.91;100.00
77207;BME280;66190;50.708;7.906;2023-12-07T06:22:42;96747.84;;;0.89;100.00
77207;BME280;66190;50.708;7.906;2023-12-07T06:25:08;96748.56;;;0.91;100.00
77207;BME280;66190;50.708;7.906;2023-12-07T06:27:35;96742.88;;;0.95;100.00
77207;BME280;66190;50.708;7.906;2023-12-07T06:30:00;96746.47;;;0.94;100.00
77207;BME280;66190;50.708;7.906;2023-12-07T06:32:26;96742.97;;;0.94;100.00
77207;BME280;66190;50.708;7.906;2023-12-07T06:34:51;96750.06;;;0.84;100.00
77207;BME280;66190;50.708;7.906;2023-12-07T06:37:17;96749.69;;;0.88;100.00
77207;BME280;66190;50.708;7.906;2023-12-07T06:39:43;96758.44;;;0.79;100.00
77207;BME280;66190;50.708;7.906;2023-12-07T06:42:08;96769.41;;;0.75;100.00
77207;BME280;66190;50.708;7.906;2023-12-07T06:44:33;96764.97;;;0.75;100.00
77207;BME280;66190;50.708;7.906;2023-12-07T06:46:59;96760.38;;;0.77;100.00
77207;BME280;66190;50.708;7.906;2023-12-07T06:49:28;96759.81;;;0.74;100.00
77207;BME280;66190;50.708;7.906;2023-12-07T06:51:53;96767.59;;;0.66;100.00
77207;BME280;66190;50.708;7.906;2023-12-07T06:54:19;96760.91;;;0.71;100.00
77207;BME280;66190;50.708;7.906;2023-12-07T06:56:44;96759.09;;;0.62;100.00
77207;BME280;66190;50.708;7.906;2023-12-07T06:59:11;96761.97;;;0.59;100.00
77207;BME280;66190;50.708;7.906;2023-12-07T07:01:36;96763.94;;;0.57;100.00
77207;BME280;66190;50.708;7.906;2023-12-07T07:04:03;96755.88;;;0.59;100.00
77207;BME280;66190;50.708;7.906;2023-12-07T07:06:28;96751.75;;;0.45;100.00
77207;BME280;66190;50.708;7.906;2023-12-07T07:08:53;96755.81;;;0.49;100.00
77207;BME280;66190;50.708;7.906;2023-12-07T07:11:19;96744.28;;;0.60;100.00
77207;BME280;66190;50.708;7.906;2023-12-07T07:13:44;96744.00;;;0.53;100.00
77207;BME280;66190;50.708;7.906;2023-12-07T07:16:10;96734.13;;;0.55;100.00
77207;BME280;66190;50.708;7.906;2023-12-07T07:18:38;96738.00;;;0.51;100.00
77207;BME280;66190;50.708;7.906;2023-12-07T07:21:03;96738.78;;;0.42;100.00
77207;BME280;66190;50.708;7.906;2023-12-07T07:23:29;96725.75;;;0.50;100.00
77207;BME280;66190;50.708;7.906;2023-12-07T07:25:55;96726.13;;;0.46;100.00
77207;BME280;66190;50.708;7.906;2023-12-07T07:28:20;96722.81;;;0.53;100.00
77207;BME280;66190;50.708;7.906;2023-12-07T07:30:46;96729.53;;;0.57;100.00
77207;BME280;66190;50.708;7.906;2023-12-07T07:33:12;96726.03;;;0.57;100.00
77207;BME280;66190;50.708;7.906;2023-12-07T07:35:37;96723.22;;;0.49;100.00
77207;BME280;66190;50.708;7.906;2023-12-07T07:38:03;96726.84;;;0.48;100.00
77207;BME280;66190;50.708;7.906;2023-12-07T07:40:28;96729.56;;;0.37;100.00
77207;BME280;66190;50.708;7.906;2023-12-07T07:42:54;96730.69;;;0.34;100.00
77207;BME280;66190;50.708;7.906;2023-12-07T07:45:19;96723.47;;;0.36;100.00
77207;BME280;66190;50.708;7.906;2023-12-07T07:47:44;96723.22;;;0.49;100.00
77207;BME280;66190;50.708;7.906;2023-12-07T07:50:10;96725.28;;;0.45;100.00
77207;BME280;66190;50.708;7.906;2023-12-07T07:52:35;96723.81;;;0.62;100.00
77207;BME280;66190;50.708;7.906;2023-12-07T07:55:02;96719.75;;;0.48;100.00
77207;BME280;66190;50.708;7.906;2023-12-07T07:57:29;96715.72;;;0.54;100.00
77207;BME280;66190;50.708;7.906;2023-12-07T07:59:56;96723.22;;;0.49;100.00
77207;BME280;66190;50.708;7.906;2023-12-07T08:02:21;96729.22;;;0.51;100.00
77207;BME280;66190;50.708;7.906;2023-12-07T08:04:47;96719.91;;;0.56;100.00
77207;BME280;66190;50.708;7.906;2023-12-07T08:07:12;96721.59;;;0.57;100.00
77207;BME280;66190;50.708;7.906;2023-12-07T08:09:38;96720.56;;;0.49;100.00
77207;BME280;66190;50.708;7.906;2023-12-07T08:12:03;96718.75;;;0.49;100.00
77207;BME280;66190;50.708;7.906;2023-12-07T08:14:30;96709.97;;;0.49;100.00
77207;BME280;66190;50.708;7.906;2023-12-07T08:16:55;96716.09;;;0.40;100.00
77207;BME280;66190;50.708;7.906;2023-12-07T08:19:21;96708.97;;;0.31;100.00
77207;BME280;66190;50.708;7.906;2023-12-07T08:21:46;96702.28;;;0.36;100.00
77207;BME280;66190;50.708;7.906;2023-12-07T08:24:12;96707.19;;;0.41;100.00
77207;BME280;66190;50.708;7.906;2023-12-07T08:26:38;96713.44;;;0.40;100.00
77207;BME280;66190;50.708;7.906;2023-12-07T08:29:04;96716.16;;;0.59;100.00
77207;BME280;66190;50.708;7.906;2023-12-07T08:31:29;96709.16;;;0.58;100.00
77207;BME280;66190;50.708;7.906;2023-12-07T08:33:55;96715.22;;;0.69;100.00
77207;BME280;66190;50.708;7.906;2023-12-07T08:36:20;96717.97;;;0.68;100.00
77207;BME280;66190;50.708;7.906;2023-12-07T08:38:46;96715.22;;;0.69;100.00
77207;BME280;66190;50.708;7.906;2023-12-07T08:41:11;96715.88;;;0.62;100.00
77207;BME280;66190;50.708;7.906;2023-12-07T08:43:37;96714.75;;;0.55;100.00
77207;BME280;66190;50.708;7.906;2023-12-07T08:46:02;96714.03;;;0.53;100.00
77207;BME280;66190;50.708;7.906;2023-12-07T08:48:29;96712.28;;;0.72;100.00
77207;BME280;66190;50.708;7.906;2023-12-07T08:50:54;96708.97;;;0.80;100.00
77207;BME280;66190;50.708;7.906;2023-12-07T08:53:20;96713.00;;;0.74;100.00
77207;BME280;66190;50.708;7.906;2023-12-07T08:55:45;96717.16;;;0.77;100.00
77207;BME280;66190;50.708;7.906;2023-12-07T08:58:11;96710.63;;;0.81;100.00
77207;BME280;66190;50.708;7.906;2023-12-07T09:00:37;96729.16;;;0.81;100.00
77207;BME280;66190;50.708;7.906;2023-12-07T09:03:03;96726.66;;;0.89;100.00
77207;BME280;66190;50.708;7.906;2023-12-07T09:05:29;96722.06;;;0.91;100.00
77207;BME280;66190;50.708;7.906;2023-12-07T09:07:55;96725.69;;;0.90;100.00
77207;BME280;66190;50.708;7.906;2023-12-07T09:10:22;96729.72;;;0.84;100.00
77207;BME280;66190;50.708;7.906;2023-12-07T09:12:48;96726.69;;;0.98;100.00
77207;BME280;66190;50.708;7.906;2023-12-07T09:15:13;96733.50;;;1.01;100.00
77207;BME280;66190;50.708;7.906;2023-12-07T09:17:39;96732.38;;;0.84;100.00
77207;BME280;66190;50.708;7.906;2023-12-07T09:20:08;96728.78;;;0.95;100.00
77207;BME280;66190;50.708;7.906;2023-12-07T09:22:42;96731.84;;;1.00;100.00
77207;BME280;66190;50.708;7.906;2023-12-07T09:25:08;96727.22;;;0.92;100.00
77207;BME280;66190;50.708;7.906;2023-12-07T09:27:34;96736.00;;;0.83;100.00
77207;BME280;66190;50.708;7.906;2023-12-07T09:30:06;96723.88;;;0.81;100.00
77207;BME280;66190;50.708;7.906;2023-12-07T09:32:32;96736.97;;;0.82;100.00
77207;BME280;66190;50.708;7.906;2023-12-07T09:35:04;96741.28;;;0.74;100.00
77207;BME280;66190;50.708;7.906;2023-12-07T09:37:30;96738.91;;;0.80;100.00
77207;BME280;66190;50.708;7.906;2023-12-07T09:39:56;96734.31;;;0.82;100.00
77207;BME280;66190;50.708;7.906;2023-12-07T09:42:22;96736.97;;;0.73;100.00
77207;BME280;66190;50.708;7.906;2023-12-07T09:44:47;96736.13;;;0.72;100.00
77207;BME280;66190;50.708;7.906;2023-12-07T09:47:13;96738.47;;;0.75;100.00
77207;BME280;66190;50.708;7.906;2023-12-07T09:49:39;96737.38;;;0.78;100.00
77207;BME280;66190;50.708;7.906;2023-12-07T09:52:06;96737.25;;;0.79;100.00
77207;BME280;66190;50.708;7.906;2023-12-07T09:54:33;96732.38;;;0.84;100.00
77207;BME280;66190;50.708;7.906;2023-12-07T09:57:00;96727.59;;;0.78;100.00
77207;BME280;66190;50.708;7.906;2023-12-07T09:59:26;96733.78;;;0.98;100.00
77207;BME280;66190;50.708;7.906;2023-12-07T10:01:51;96728.50;;;1.07;100.00
77207;BME280;66190;50.708;7.906;2023-12-07T10:04:19;96732.66;;;0.81;100.00
77207;BME280;66190;50.708;7.906;2023-12-07T10:06:46;96731.53;;;0.74;100.00
77207;BME280;66190;50.708;7.906;2023-12-07T10:09:13;96718.16;;;0.76;100.00
77207;BME280;66190;50.708;7.906;2023-12-07T10:11:39;96725.81;;;0.79;100.00
77207;BME280;66190;50.708;7.906;2023-12-07T10:14:06;96725.53;;;0.82;100.00
77207;BME280;66190;50.708;7.906;2023-12-07T10:16:33;96712.03;;;0.94;100.00
77207;BME280;66190;50.708;7.906;2023-12-07T10:19:16;96707.84;;;0.82;100.00
77207;BME280;66190;50.708;7.906;2023-12-07T10:21:47;96708.13;;;0.89;100.00
77207;BME280;66190;50.708;7.906;2023-12-07T10:24:13;96696.28;;;1.12;100.00
77207;BME280;66190;50.708;7.906;2023-12-07T10:26:39;96706.06;;;1.21;100.00
77207;BME280;66190;50.708;7.906;2023-12-07T10:29:05;96693.66;;;1.31;100.00
77207;BME280;66190;50.708;7.906;2023-12-07T10:31:31;96680.41;;;1.41;100.00
77207;BME280;66190;50.708;7.906;2023-12-07T10:33:58;96677.56;;;1.61;100.00
77207;BME280;66190;50.708;7.906;2023-12-07T10:36:24;96675.84;;;1.79;100.00
77207;BME280;66190;50.708;7.906;2023-12-07T10:38:49;96675.44;;;1.74;99.46
77207;BME280;66190;50.708;7.906;2023-12-07T10:41:22;96679.19;;;1.81;99.93
77207;BME280;66190;50.708;7.906;2023-12-07T10:44:00;96695.59;;;2.13;98.97
77207;BME280;66190;50.708;7.906;2023-12-07T10:46:26;96679.13;;;2.37;98.91
77207;BME280;66190;50.708;7.906;2023-12-07T10:48:59;96687.53;;;1.96;97.70
77207;BME280;66190;50.708;7.906;2023-12-07T10:51:42;96686.63;;;2.14;96.97
77207;BME280;66190;50.708;7.906;2023-12-07T10:54:14;96680.16;;;2.26;97.63
77207;BME280;66190;50.708;7.906;2023-12-07T10:56:45;96674.75;;;2.18;97.56
77207;BME280;66190;50.708;7.906;2023-12-07T10:59:11;96665.00;;;2.37;96.27
77207;BME280;66190;50.708;7.906;2023-12-07T11:01:42;96659.06;;;2.25;96.23
77207;BME280;66190;50.708;7.906;2023-12-07T11:04:12;96637.75;;;2.17;98.25
77207;BME280;66190;50.708;7.906;2023-12-07T11:06:43;96645.16;;;2.13;97.89
77207;BME280;66190;50.708;7.906;2023-12-07T11:09:21;96646.50;;;2.27;98.32
77207;BME280;66190;50.708;7.906;2023-12-07T11:11:55;96637.25;;;2.31;96.34
77207;BME280;66190;50.708;7.906;2023-12-07T11:14:22;96635.22;;;2.15;96.59
77207;BME280;66190;50.708;7.906;2023-12-07T11:16:48;96636.97;;;2.24;96.65
77207;BME280;66190;50.708;7.906;2023-12-07T11:22:04;96635.63;;;1.84;98.60
77207;BME280;66190;50.708;7.906;2023-12-07T11:24:29;96618.34;;;2.07;97.96
77207;BME280;66190;50.708;7.906;2023-12-07T11:26:55;96624.06;;;2.12;97.77
77207;BME280;66190;50.708;7.906;2023-12-07T11:29:21;96618.44;;;2.42;96.58
77207;BME280;66190;50.708;7.906;2023-12-07T11:31:49;96603.03;;;2.28;93.96
77207;BME280;66190;50.708;7.906;2023-12-07T11:34:36;96606.16;;;2.41;94.83
77207;BME280;66190;50.708;7.906;2023-12-07T11:37:02;96608.75;;;2.51;94.28
77207;BME280;66190;50.708;7.906;2023-12-07T11:39:29;96600.56;;;2.44;93.38
77207;BME280;66190;50.708;7.906;2023-12-07T11:41:55;96603.03;;;2.28;94.45
77207;BME280;66190;50.708;7.906;2023-12-07T11:44:37;96599.53;;;2.00;96.04
77207;BME280;66190;50.708;7.906;2023-12-07T11:47:04;96599.19;;;2.13;95.72
77207;BME280;66190;50.708;7.906;2023-12-07T11:49:31;96585.03;;;1.95;96.24
77207;BME280;66190;50.708;7.906;2023-12-07T11:51:57;96580.41;;;1.97;96.40
77207;BME280;66190;50.708;7.906;2023-12-07T11:54:23;96580.03;;;1.92;96.10
77207;BME280;66190;50.708;7.906;2023-12-07T11:56:55;96571.53;;;1.88;95.13
77207;BME280;66190;50.708;7.906;2023-12-07T11:59:22;96564.25;;;1.90;95.65
77207;BME280;66190;50.708;7.906;2023-12-07T12:01:48;96548.25;;;2.09;95.24
77207;BME280;66190;50.708;7.906;2023-12-07T12:04:17;96546.38;;;1.92;94.37
77207;BME280;66190;50.708;7.906;2023-12-07T12:06:44;96541.69;;;2.04;95.80
77207;BME280;66190;50.708;7.906;2023-12-07T12:09:15;96542.97;;;2.27;94.50
77207;BME280;66190;50.708;7.906;2023-12-07T12:11:47;96545.38;;;2.20;94.19
77207;BME280;66190;50.708;7.906;2023-12-07T12:14:16;96534.75;;;2.38;93.67
77207;BME280;66190;50.708;7.906;2023-12-07T12:16:43;96532.81;;;2.40;92.89
77207;BME280;66190;50.708;7.906;2023-12-07T12:19:10;96525.16;;;2.55;93.40
77207;BME280;66190;50.708;7.906;2023-12-07T12:21:36;96525.16;;;2.55;92.58
77207;BME280;66190;50.708;7.906;2023-12-07T12:24:07;96519.38;;;2.59;90.65
77207;BME280;66190;50.708;7.906;2023-12-07T12:26:34;96518.31;;;2.70;91.17
77207;BME280;66190;50.708;7.906;2023-12-07T12:29:01;96514.59;;;2.45;91.61
77207;BME280;66190;50.708;7.906;2023-12-07T12:31:26;96515.56;;;2.26;91.86
77207;BME280;66190;50.708;7.906;2023-12-07T12:33:53;96507.03;;;2.33;91.96
77207;BME280;66190;50.708;7.906;2023-12-07T12:36:19;96505.13;;;2.25;91.39
77207;BME280;66190;50.708;7.906;2023-12-07T12:38:49;96503.75;;;2.39;93.01
77207;BME280;66190;50.708;7.906;2023-12-07T12:41:19;96501.03;;;2.30;92.64
77207;BME280;66190;50.708;7.906;2023-12-07T12:43:44;96499.31;;;2.82;92.15
77207;BME280;66190;50.708;7.906;2023-12-07T12:46:10;96513.63;;;2.81;90.94
77207;BME280;66190;50.708;7.906;2023-12-07T12:48:37;96510.97;;;2.81;89.27
77207;BME280;66190;50.708;7.906;2023-12-07T12:51:10;96512.38;;;2.93;88.63
77207;BME280;66190;50.708;7.906;2023-12-07T12:53:43;96506.81;;;3.30;89.10
77207;BME280;66190;50.708;7.906;2023-12-07T12:56:10;96504.72;;;3.41;86.96
77207;BME280;66190;50.708;7.906;2023-12-07T12:58:36;96490.72;;;3.31;85.56
77207;BME280;66190;50.708;7.906;2023-12-07T13:01:02;96496.34;;;3.62;85.55
77207;BME280;66190;50.708;7.906;2023-12-07T13:03:28;96498.34;;;3.60;83.91